createdAt,value
2023-05-06T00:01:13.961Z,71.11
2023-05-06T00:03:41.875Z,71.13
2023-05-06T00:06:09.787Z,71.39
2023-05-06T00:08:37.573Z,71.54
2023-05-06T00:11:05.448Z,71.52
2023-05-06T00:13:33.288Z,71.47
2023-05-06T00:16:00.898Z,71.50
2023-05-06T00:18:28.489Z,71.49
2023-05-06T00:20:56.492Z,71.68
2023-05-06T00:23:24.077Z,71.75
2023-05-06T00:25:54.236Z,71.72
2023-05-06T00:28:21.989Z,71.58
2023-05-06T00:30:49.579Z,71.60
2023-05-06T00:33:17.058Z,71.62
2023-05-06T00:35:44.572Z,71.65
2023-05-06T00:38:14.986Z,71.75
2023-05-06T00:40:42.924Z,72.09
2023-05-06T00:43:11.023Z,72.07
2023-05-06T00:45:38.986Z,72.06
2023-05-06T00:48:07.708Z,72.10
2023-05-06T00:50:35.665Z,72.12
2023-05-06T00:53:05.432Z,72.24
2023-05-06T00:55:33.175Z,72.46
2023-05-06T00:58:01.014Z,72.38
2023-05-06T01:00:28.752Z,72.37
2023-05-06T01:02:56.937Z,72.40
2023-05-06T01:05:29.523Z,72.42
2023-05-06T01:08:23.119Z,72.55
2023-05-06T01:10:59.833Z,72.65
2023-05-06T01:13:59.796Z,72.88
2023-05-06T01:16:30.254Z,72.92
2023-05-06T01:19:00.036Z,72.91
2023-05-06T01:21:31.784Z,73.14
2023-05-06T01:23:59.426Z,73.37
2023-05-06T01:26:27.252Z,73.29
2023-05-06T01:28:56.100Z,73.50
2023-05-06T01:31:27.243Z,73.43
2023-05-06T01:34:24.182Z,73.63
2023-05-06T01:37:36.617Z,73.62
2023-05-06T01:40:07.147Z,73.65
2023-05-06T01:42:36.822Z,73.70
2023-05-06T01:45:07.414Z,73.69
2023-05-06T01:47:36.500Z,73.73
2023-05-06T01:50:05.396Z,74.05
2023-05-06T01:52:34.075Z,74.02
2023-05-06T01:55:02.074Z,74.08
2023-05-06T01:57:29.773Z,74.10
2023-05-06T01:59:57.561Z,74.25
2023-05-06T02:02:25.306Z,74.36
2023-05-06T02:04:53.532Z,74.38
2023-05-06T02:07:21.073Z,74.34
2023-05-06T02:09:48.756Z,74.49
2023-05-06T02:12:16.655Z,74.52
2023-05-06T02:14:44.217Z,74.56
2023-05-06T02:17:11.984Z,74.66
2023-05-06T02:19:39.633Z,74.75
2023-05-06T02:22:07.324Z,74.86
2023-05-06T02:24:35.089Z,74.92
2023-05-06T02:27:03.683Z,75.02
2023-05-06T02:29:31.337Z,75.13
2023-05-06T02:31:58.741Z,75.35
2023-05-06T02:34:26.081Z,75.43
2023-05-06T02:36:53.979Z,75.45
2023-05-06T02:39:23.863Z,75.48
2023-05-06T02:41:51.605Z,75.83
2023-05-06T02:44:18.967Z,75.75
2023-05-06T02:46:46.324Z,75.77
2023-05-06T02:49:14.026Z,75.83
2023-05-06T02:51:42.109Z,75.91
2023-05-06T02:54:09.779Z,75.92
2023-05-06T02:56:37.402Z,75.98
2023-05-06T02:59:05.657Z,76.04
2023-05-06T03:01:33.499Z,76.09
2023-05-06T03:04:01.145Z,76.41
2023-05-06T03:06:28.885Z,76.24
2023-05-06T03:08:56.987Z,76.28
2023-05-06T03:11:25.113Z,76.31
2023-05-06T03:13:54.200Z,76.48
2023-05-06T03:16:21.932Z,76.49
2023-05-06T03:18:51.478Z,76.52
2023-05-06T03:21:19.445Z,76.58
2023-05-06T03:23:47.646Z,76.63
2023-05-06T03:26:15.662Z,76.68
2023-05-06T03:28:44.150Z,76.69
2023-05-06T03:31:12.894Z,76.77
2023-05-06T03:33:40.522Z,76.73
2023-05-06T03:36:09.031Z,76.83
2023-05-06T03:38:36.768Z,76.81
2023-05-06T03:41:05.941Z,76.96
2023-05-06T03:43:33.774Z,76.95
2023-05-06T03:46:03.320Z,77.02
2023-05-06T03:48:31.609Z,77.02
2023-05-06T03:50:59.402Z,77.00
2023-05-06T03:53:27.879Z,77.09
2023-05-06T03:55:55.945Z,77.08
2023-05-06T03:58:24.319Z,77.01
2023-05-06T04:00:51.936Z,76.98
2023-05-06T04:03:19.835Z,77.01
2023-05-06T04:05:50.591Z,77.08
2023-05-06T04:08:20.155Z,77.10
2023-05-06T04:10:49.663Z,77.00
2023-05-06T04:13:19.545Z,77.05
2023-05-06T04:15:49.636Z,76.93
2023-05-06T04:18:19.548Z,77.14
2023-05-06T04:20:50.830Z,77.37
2023-05-06T04:23:19.670Z,77.13
2023-05-06T04:25:48.304Z,78.19
2023-05-06T04:28:19.147Z,78.53
2023-05-06T04:30:48.969Z,79.43
2023-05-06T04:33:16.637Z,77.05
2023-05-06T04:35:53.753Z,75.86
2023-05-06T04:38:22.175Z,73.16
2023-05-06T04:40:50.494Z,69.80
2023-05-06T04:43:18.343Z,65.92
2023-05-06T04:45:48.743Z,63.27
2023-05-06T04:48:19.237Z,59.86
2023-05-06T04:50:47.436Z,57.60
2023-05-06T04:53:15.783Z,54.81
2023-05-06T04:55:43.745Z,52.37
2023-05-06T04:58:11.813Z,50.74
2023-05-06T05:00:39.805Z,48.93
2023-05-06T05:03:10.334Z,49.71
2023-05-06T05:05:40.646Z,46.88
2023-05-06T05:08:12.249Z,47.45
2023-05-06T05:10:43.966Z,46.48
2023-05-06T05:13:14.172Z,46.04
2023-05-06T05:15:42.348Z,45.04
2023-05-06T05:18:10.560Z,46.14
2023-05-06T05:20:38.042Z,45.48
2023-05-06T05:23:07.011Z,44.74
2023-05-06T05:25:35.003Z,44.81
2023-05-06T05:28:02.706Z,44.77
2023-05-06T05:30:31.229Z,44.58
2023-05-06T05:33:02.412Z,44.27
2023-05-06T05:35:31.812Z,44.35
2023-05-06T05:38:07.445Z,43.89
2023-05-06T05:40:38.793Z,43.90
2023-05-06T05:43:11.660Z,42.96
2023-05-06T05:45:40.399Z,43.35
2023-05-06T05:48:09.395Z,42.80
2023-05-06T05:50:37.282Z,40.89
2023-05-06T05:53:06.487Z,41.23
2023-05-06T05:55:39.628Z,41.09
2023-05-06T05:58:07.241Z,39.63
2023-05-06T06:00:35.296Z,38.75
2023-05-06T06:03:07.052Z,38.47
2023-05-06T06:05:35.319Z,38.91
2023-05-06T06:08:03.899Z,39.38
2023-05-06T06:10:32.782Z,38.97
2023-05-06T06:13:03.408Z,37.24
2023-05-06T06:15:32.106Z,36.97
2023-05-06T06:18:02.641Z,36.83
2023-05-06T06:20:31.131Z,36.91
2023-05-06T06:23:00.202Z,37.03
2023-05-06T06:25:28.024Z,36.88
2023-05-06T06:27:57.361Z,36.59
2023-05-06T06:30:33.738Z,36.49
2023-05-06T06:33:01.856Z,34.83
2023-05-06T06:35:29.762Z,33.87
2023-05-06T06:37:59.276Z,33.94
2023-05-06T06:40:27.071Z,34.37
2023-05-06T06:42:54.896Z,33.84
2023-05-06T06:45:45.522Z,32.86
2023-05-06T06:48:13.480Z,32.47
2023-05-06T06:50:41.315Z,31.69
2023-05-06T06:53:10.611Z,32.08
2023-05-06T06:55:38.016Z,32.54
2023-05-06T06:58:08.428Z,32.75
2023-05-06T07:00:36.541Z,32.51
2023-05-06T07:03:04.354Z,32.67
2023-05-06T07:05:33.877Z,33.05
2023-05-06T07:08:01.497Z,33.48
2023-05-06T07:10:36.770Z,33.74
2023-05-06T07:13:06.060Z,34.45
2023-05-06T07:15:33.912Z,34.58
2023-05-06T07:18:01.800Z,35.01
2023-05-06T07:20:30.329Z,35.58
2023-05-06T07:22:59.255Z,36.56
2023-05-06T07:25:27.640Z,36.72
2023-05-06T07:27:55.400Z,37.00
2023-05-06T07:30:24.193Z,36.37
2023-05-06T07:32:55.880Z,35.65
2023-05-06T07:35:33.248Z,35.79
2023-05-06T07:38:01.109Z,35.82
2023-05-06T07:40:30.666Z,34.95
2023-05-06T07:42:58.315Z,34.75
2023-05-06T07:45:26.095Z,34.79
2023-05-06T07:47:53.999Z,34.32
2023-05-06T07:50:31.564Z,33.80
2023-05-06T07:53:08.599Z,33.38
2023-05-06T07:55:37.296Z,32.64
2023-05-06T07:58:05.260Z,32.02
2023-05-06T08:00:36.165Z,32.97
2023-05-06T08:03:04.676Z,33.07
2023-05-06T08:05:32.715Z,32.88
2023-05-06T08:08:02.189Z,32.77
2023-05-06T08:10:30.271Z,33.15
2023-05-06T08:12:58.284Z,33.19
2023-05-06T08:15:26.367Z,32.60
2023-05-06T08:17:55.257Z,32.88
2023-05-06T08:20:23.231Z,32.69
2023-05-06T08:22:52.849Z,32.70
2023-05-06T08:25:20.872Z,32.75
2023-05-06T08:27:49.057Z,31.79
2023-05-06T08:30:26.840Z,31.11
2023-05-06T08:33:00.241Z,31.08
2023-05-06T08:35:27.876Z,32.05
2023-05-06T08:37:55.951Z,31.77
2023-05-06T08:40:27.615Z,32.20
2023-05-06T08:42:57.427Z,32.70
2023-05-06T08:45:26.777Z,32.53
2023-05-06T08:47:55.035Z,32.96
2023-05-06T08:50:23.916Z,32.78
2023-05-06T08:52:52.099Z,32.49
2023-05-06T08:55:21.851Z,32.33
2023-05-06T08:57:52.718Z,31.37
2023-05-06T09:00:20.550Z,31.79
2023-05-06T09:02:48.890Z,31.64
2023-05-06T09:05:17.217Z,31.31
2023-05-06T09:07:44.867Z,30.89
2023-05-06T09:10:14.020Z,30.89
2023-05-06T09:12:41.898Z,31.38
2023-05-06T09:15:11.516Z,31.15
2023-05-06T09:17:39.743Z,31.81
2023-05-06T09:20:17.529Z,31.73
2023-05-06T09:22:48.570Z,31.35
2023-05-06T09:25:18.284Z,31.12
2023-05-06T09:27:45.739Z,31.18
2023-05-06T09:30:14.687Z,30.35
2023-05-06T09:32:42.342Z,30.68
2023-05-06T09:35:11.443Z,31.00
2023-05-06T09:37:39.750Z,31.46
2023-05-06T09:40:08.818Z,30.86
2023-05-06T09:42:36.402Z,31.18
2023-05-06T09:45:10.748Z,31.54
2023-05-06T09:47:41.955Z,31.36
2023-05-06T09:50:13.602Z,31.48
2023-05-06T09:52:48.316Z,31.18
2023-05-06T09:55:20.029Z,31.35
2023-05-06T09:57:50.894Z,31.68
2023-05-06T10:00:21.794Z,31.81
2023-05-06T10:02:50.527Z,31.39
2023-05-06T10:05:18.757Z,31.95
2023-05-06T10:07:49.278Z,30.26
2023-05-06T10:10:18.420Z,31.00
2023-05-06T10:12:46.195Z,31.41
2023-05-06T10:15:14.049Z,30.84
2023-05-06T10:17:46.140Z,31.75
2023-05-06T10:20:14.746Z,32.11
2023-05-06T10:23:26.351Z,31.60
2023-05-06T10:25:58.303Z,31.42
2023-05-06T10:28:31.047Z,32.03
2023-05-06T10:31:04.788Z,31.84
2023-05-06T10:33:33.320Z,31.69
2023-05-06T10:36:23.438Z,31.03
2023-05-06T10:38:59.629Z,31.78
2023-05-06T10:41:28.821Z,31.14
2023-05-06T10:43:59.722Z,31.47
2023-05-06T10:46:30.143Z,31.55
2023-05-06T10:49:13.292Z,31.38
2023-05-06T10:51:43.207Z,32.07
2023-05-06T10:54:24.016Z,32.75
2023-05-06T10:56:57.720Z,33.19
2023-05-06T10:59:27.989Z,33.21
2023-05-06T11:02:07.432Z,33.59
2023-05-06T11:04:37.011Z,34.39
2023-05-06T11:07:15.764Z,34.21
2023-05-06T11:10:06.305Z,34.25
2023-05-06T11:12:52.141Z,34.19
2023-05-06T11:15:39.388Z,35.03
2023-05-06T11:18:34.032Z,35.12
2023-05-06T11:21:08.969Z,35.09
2023-05-06T11:23:51.969Z,35.54
2023-05-06T11:26:21.318Z,35.50
2023-05-06T11:28:53.183Z,35.45
2023-05-06T11:31:26.088Z,34.99
2023-05-06T11:34:00.391Z,34.47
2023-05-06T11:36:34.909Z,35.19
2023-05-06T11:39:10.591Z,35.59
2023-05-06T11:41:44.676Z,36.13
2023-05-06T11:44:16.086Z,36.06
2023-05-06T11:46:47.313Z,36.86
2023-05-06T11:49:14.908Z,37.33
2023-05-06T11:51:48.169Z,37.68
2023-05-06T11:54:19.433Z,38.07
2023-05-06T11:56:53.733Z,38.32
2023-05-06T11:59:33.558Z,38.37
2023-05-06T12:02:12.230Z,38.39
2023-05-06T12:04:49.670Z,38.36
2023-05-06T12:07:17.982Z,39.02
2023-05-06T12:09:50.502Z,38.91
2023-05-06T12:12:24.950Z,39.35
2023-05-06T12:14:53.659Z,39.60
2023-05-06T12:17:22.260Z,39.67
2023-05-06T12:19:55.256Z,40.15
2023-05-06T12:22:26.320Z,40.39
2023-05-06T12:24:54.288Z,40.59
2023-05-06T12:27:34.071Z,40.55
2023-05-06T12:30:03.899Z,40.14
2023-05-06T12:32:31.927Z,39.39
2023-05-06T12:35:06.468Z,38.67
2023-05-06T12:37:38.741Z,38.33
2023-05-06T12:40:15.230Z,38.63
2023-05-06T12:42:43.100Z,37.70
2023-05-06T12:45:15.376Z,37.62
2023-05-06T12:47:57.660Z,37.74
2023-05-06T12:50:41.172Z,37.93
2023-05-06T12:53:12.720Z,36.87
2023-05-06T12:55:41.616Z,37.73
2023-05-06T12:58:19.028Z,38.29
2023-05-06T13:00:46.877Z,38.31
2023-05-06T13:03:15.292Z,38.68
2023-05-06T13:05:46.302Z,38.86
2023-05-06T13:08:16.431Z,39.54
2023-05-06T13:10:44.202Z,39.78
2023-05-06T13:13:13.582Z,39.70
2023-05-06T13:15:41.245Z,39.50
2023-05-06T13:18:09.296Z,39.58
2023-05-06T13:20:36.974Z,39.75
2023-05-06T13:23:04.470Z,40.08
2023-05-06T13:25:32.017Z,40.46
2023-05-06T13:27:59.499Z,40.41
2023-05-06T13:30:27.276Z,40.91
2023-05-06T13:32:54.818Z,41.19
2023-05-06T13:35:22.477Z,41.09
2023-05-06T13:37:50.313Z,41.26
2023-05-06T13:40:18.093Z,40.86
2023-05-06T13:42:46.060Z,40.96
2023-05-06T13:45:14.251Z,41.24
2023-05-06T13:47:42.544Z,41.31
2023-05-06T13:50:10.969Z,41.53
2023-05-06T13:52:38.863Z,41.37
2023-05-06T13:55:08.702Z,41.43
2023-05-06T13:57:36.474Z,41.19
2023-05-06T14:00:06.673Z,40.70
2023-05-06T14:02:34.520Z,40.62
2023-05-06T14:05:02.304Z,40.00
2023-05-06T14:07:30.096Z,39.82
2023-05-06T14:09:58.015Z,39.86
2023-05-06T14:12:25.712Z,40.00
2023-05-06T14:14:54.965Z,39.86
2023-05-06T14:17:22.611Z,39.76
2023-05-06T14:19:50.219Z,39.53
2023-05-06T14:22:18.137Z,39.56
2023-05-06T14:24:45.870Z,39.36
2023-05-06T14:27:13.782Z,39.71
2023-05-06T14:29:42.619Z,39.29
2023-05-06T14:32:10.472Z,39.05
2023-05-06T14:34:38.423Z,39.11
2023-05-06T14:37:06.227Z,39.27
2023-05-06T14:39:33.647Z,39.05
2023-05-06T14:42:01.352Z,39.23
2023-05-06T14:44:29.038Z,39.42
2023-05-06T14:46:56.723Z,39.46
2023-05-06T14:49:24.383Z,39.78
2023-05-06T14:51:51.978Z,39.61
2023-05-06T14:54:19.686Z,39.62
2023-05-06T14:56:48.928Z,38.33
2023-05-06T14:59:18.602Z,38.86
2023-05-06T15:01:46.233Z,38.78
2023-05-06T15:04:13.737Z,38.84
2023-05-06T15:06:41.712Z,38.92
2023-05-06T15:09:09.833Z,38.34
2023-05-06T15:11:37.746Z,38.75
2023-05-06T15:14:05.580Z,38.79
2023-05-06T15:16:33.516Z,38.99
2023-05-06T15:19:01.357Z,39.49
2023-05-06T15:21:29.072Z,39.23
2023-05-06T15:23:56.972Z,39.05
2023-05-06T15:26:24.702Z,38.92
2023-05-06T15:28:52.267Z,39.50
2023-05-06T15:31:20.861Z,38.50
2023-05-06T15:33:48.763Z,38.53
2023-05-06T15:36:16.300Z,38.20
2023-05-06T15:38:59.797Z,38.64
2023-05-06T15:41:29.801Z,38.36
2023-05-06T15:44:02.591Z,38.46
2023-05-06T15:46:31.498Z,38.20
2023-05-06T15:49:15.665Z,38.37
2023-05-06T15:51:30.907Z,38.79
2023-05-06T15:53:58.547Z,38.48
2023-05-06T15:56:26.993Z,38.20
2023-05-06T15:58:55.337Z,38.56
2023-05-06T16:01:48.008Z,38.69
2023-05-06T16:03:53.072Z,38.80
2023-05-06T16:06:21.092Z,38.90
2023-05-06T16:08:48.415Z,38.98
2023-05-06T16:11:16.010Z,39.11
2023-05-06T16:13:44.021Z,39.26
2023-05-06T16:16:12.720Z,39.42
2023-05-06T16:18:40.214Z,39.42
2023-05-06T16:21:07.505Z,39.46
2023-05-06T16:23:36.210Z,39.67
2023-05-06T16:26:04.291Z,39.56
2023-05-06T16:28:31.954Z,39.55
2023-05-06T16:31:03.163Z,39.78
2023-05-06T16:33:30.693Z,39.84
2023-05-06T16:36:02.322Z,40.25
2023-05-06T16:38:31.535Z,40.43
2023-05-06T16:40:59.334Z,40.67
2023-05-06T16:43:40.023Z,40.98
2023-05-06T16:46:09.275Z,41.40
2023-05-06T16:48:37.435Z,41.63
2023-05-06T16:51:09.631Z,41.76
2023-05-06T16:53:37.103Z,41.90
2023-05-06T16:56:50.879Z,42.00
2023-05-06T16:59:04.313Z,42.08
2023-05-06T17:01:32.012Z,42.50
2023-05-06T17:03:59.790Z,42.42
2023-05-06T17:06:38.705Z,42.50
2023-05-06T17:09:06.425Z,42.55
2023-05-06T17:11:34.203Z,42.64
2023-05-06T17:14:01.659Z,42.98
2023-05-06T17:16:29.450Z,42.98
2023-05-06T17:18:56.846Z,43.06
2023-05-06T17:21:24.352Z,43.25
2023-05-06T17:23:53.803Z,43.36
2023-05-06T17:26:21.849Z,43.42
2023-05-06T17:28:50.505Z,43.65
2023-05-06T17:31:18.452Z,43.85
2023-05-06T17:33:47.487Z,43.94
2023-05-06T17:36:17.510Z,44.11
2023-05-06T17:38:45.556Z,44.83
2023-05-06T17:41:13.241Z,45.08
2023-05-06T17:43:42.452Z,45.54
2023-05-06T17:46:10.275Z,45.37
2023-05-06T17:48:38.271Z,45.79
2023-05-06T17:51:05.979Z,45.82
2023-05-06T17:53:33.573Z,46.05
2023-05-06T17:56:01.248Z,46.24
2023-05-06T17:58:28.991Z,46.49
2023-05-06T18:00:57.067Z,46.67
2023-05-06T18:03:25.277Z,46.81
2023-05-06T18:05:52.895Z,47.09
2023-05-06T18:08:20.405Z,47.15
2023-05-06T18:10:50.161Z,47.57
2023-05-06T18:13:18.384Z,47.89
2023-05-06T18:15:48.058Z,48.12
2023-05-06T18:18:16.055Z,48.61
2023-05-06T18:20:43.624Z,48.78
2023-05-06T18:23:11.406Z,49.19
2023-05-06T18:25:39.693Z,49.38
2023-05-06T18:28:08.100Z,49.60
2023-05-06T18:30:36.082Z,49.97
2023-05-06T18:33:03.790Z,50.15
2023-05-06T18:35:31.523Z,50.26
2023-05-06T18:37:59.087Z,50.69
2023-05-06T18:40:28.608Z,51.19
2023-05-06T18:42:56.223Z,50.88
2023-05-06T18:45:28.013Z,50.94
2023-05-06T18:47:55.633Z,50.96
2023-05-06T18:50:24.169Z,51.10
2023-05-06T18:52:53.549Z,51.02
2023-05-06T18:55:24.617Z,51.21
2023-05-06T18:57:52.343Z,51.35
2023-05-06T19:00:21.873Z,51.31
2023-05-06T19:02:51.507Z,51.37
2023-05-06T19:05:20.443Z,51.47
2023-05-06T19:07:50.672Z,51.64
2023-05-06T19:10:18.766Z,51.57
2023-05-06T19:12:46.414Z,51.69
2023-05-06T19:15:16.902Z,51.73
2023-05-06T19:17:47.264Z,51.87
2023-05-06T19:20:14.852Z,52.19
2023-05-06T19:22:42.695Z,52.23
2023-05-06T19:25:11.110Z,52.21
2023-05-06T19:27:41.221Z,52.26
2023-05-06T19:30:09.737Z,52.28
2023-05-06T19:32:37.980Z,52.57
2023-05-06T19:35:10.453Z,52.47
2023-05-06T19:37:38.386Z,52.47
2023-05-06T19:40:07.421Z,52.57
2023-05-06T19:42:35.410Z,52.56
2023-05-06T19:45:10.197Z,52.69
2023-05-06T19:47:38.337Z,52.45
2023-05-06T19:50:07.324Z,51.51
2023-05-06T19:52:41.321Z,51.14
2023-05-06T19:55:10.389Z,50.28
2023-05-06T19:57:38.009Z,50.34
2023-05-06T20:00:13.848Z,50.17
2023-05-06T20:02:44.062Z,49.55
2023-05-06T20:05:12.480Z,49.60
2023-05-06T20:07:40.853Z,49.53
2023-05-06T20:10:10.036Z,49.49
2023-05-06T20:12:37.776Z,49.52
2023-05-06T20:15:06.920Z,49.48
2023-05-06T20:17:39.214Z,49.56
2023-05-06T20:20:10.593Z,49.52
2023-05-06T20:22:39.753Z,49.58
2023-05-06T20:25:18.145Z,49.63
2023-05-06T20:27:45.946Z,49.88
2023-05-06T20:30:13.872Z,50.05
2023-05-06T20:32:41.413Z,50.12
2023-05-06T20:35:09.521Z,50.27
2023-05-06T20:37:38.157Z,50.49
2023-05-06T20:40:07.325Z,50.54
2023-05-06T20:42:35.105Z,50.67
2023-05-06T20:45:05.438Z,50.85
2023-05-06T20:47:33.062Z,51.15
2023-05-06T20:50:01.192Z,51.23
2023-05-06T20:52:29.031Z,51.15
2023-05-06T20:54:57.707Z,51.17
2023-05-06T20:57:25.400Z,51.17
2023-05-06T20:59:55.660Z,50.99
2023-05-06T21:02:23.394Z,50.91
2023-05-06T21:04:51.263Z,51.01
2023-05-06T21:07:18.867Z,51.42
2023-05-06T21:09:46.634Z,51.90
2023-05-06T21:12:20.575Z,52.45
2023-05-06T21:14:48.304Z,52.78
2023-05-06T21:17:16.008Z,53.03
2023-05-06T21:19:43.646Z,53.47
2023-05-06T21:22:12.183Z,53.72
2023-05-06T21:24:39.837Z,53.97
2023-05-06T21:27:07.872Z,54.13
2023-05-06T21:29:36.524Z,54.47
2023-05-06T21:32:04.756Z,54.87
2023-05-06T21:34:32.496Z,55.08
2023-05-06T21:37:00.337Z,55.23
2023-05-06T21:39:28.167Z,55.15
2023-05-06T21:41:56.004Z,55.20
2023-05-06T21:44:23.549Z,55.12
2023-05-06T21:46:51.513Z,55.15
2023-05-06T21:49:21.548Z,55.27
2023-05-06T21:51:49.253Z,55.26
2023-05-06T21:54:17.231Z,55.35
2023-05-06T21:56:44.818Z,55.40
2023-05-06T21:59:12.810Z,55.43
2023-05-06T22:01:41.150Z,55.47
2023-05-06T22:04:12.360Z,55.57
2023-05-06T22:06:40.425Z,55.54
2023-05-06T22:09:09.312Z,55.58
2023-05-06T22:11:38.272Z,55.66
2023-05-06T22:14:06.906Z,55.69
2023-05-06T22:16:37.322Z,55.73
2023-05-06T22:19:05.732Z,55.70
2023-05-06T22:21:36.904Z,55.79
2023-05-06T22:24:05.582Z,55.79
2023-05-06T22:26:33.530Z,55.72
2023-05-06T22:29:00.873Z,55.74
2023-05-06T22:31:28.534Z,55.79
2023-05-06T22:33:57.423Z,55.94
2023-05-06T22:36:28.851Z,55.96
2023-05-06T22:38:56.393Z,56.09
2023-05-06T22:41:24.228Z,56.17
2023-05-06T22:43:52.230Z,56.22
2023-05-06T22:46:20.713Z,56.48
2023-05-06T22:48:48.571Z,56.95
2023-05-06T22:51:16.840Z,57.43
2023-05-06T22:53:44.751Z,57.51
2023-05-06T22:56:12.194Z,57.73
2023-05-06T22:58:39.709Z,57.77
2023-05-06T23:01:07.757Z,57.87
2023-05-06T23:03:36.200Z,57.90
2023-05-06T23:06:05.470Z,57.90
2023-05-06T23:08:33.443Z,57.86
2023-05-06T23:11:01.366Z,57.71
2023-05-06T23:13:30.710Z,57.60
2023-05-06T23:16:00.088Z,57.63
2023-05-06T23:18:28.013Z,57.63
2023-05-06T23:21:00.018Z,57.67
2023-05-06T23:23:31.141Z,57.79
2023-05-06T23:26:00.487Z,58.09
2023-05-06T23:28:30.219Z,58.67
2023-05-06T23:30:57.923Z,59.13
2023-05-06T23:33:27.439Z,59.50
2023-05-06T23:35:55.295Z,59.71
2023-05-06T23:38:22.883Z,60.00
2023-05-06T23:40:50.653Z,60.22
2023-05-06T23:43:18.417Z,60.23
2023-05-06T23:45:46.311Z,60.85
2023-05-06T23:48:18.397Z,60.72
2023-05-06T23:50:49.629Z,61.04
2023-05-06T23:53:21.006Z,61.31
2023-05-06T23:55:50.742Z,61.82
2023-05-06T23:58:18.748Z,62.24
